sensor_id;sensor_type;location;lat;lon;timestamp;P1;durP1;ratioP1;P2;durP2;ratioP2
75781;SDS011;64400;44.762;37.698;2022-12-18T00:01:45;6.10;;;3.33;;
75781;SDS011;64400;44.762;37.698;2022-12-18T00:04:36;7.95;;;3.55;;
75781;SDS011;64400;44.762;37.698;2022-12-18T00:07:24;7.88;;;3.63;;
75781;SDS011;64400;44.762;37.698;2022-12-18T00:10:13;7.28;;;3.22;;
75781;SDS011;64400;44.762;37.698;2022-12-18T00:13:01;6.68;;;3.28;;
75781;SDS011;64400;44.762;37.698;2022-12-18T00:15:50;5.80;;;2.97;;
75781;SDS011;64400;44.762;37.698;2022-12-18T00:18:39;7.53;;;2.97;;
75781;SDS011;64400;44.762;37.698;2022-12-18T00:21:10;4.80;;;2.80;;
75781;SDS011;64400;44.762;37.698;2022-12-18T00:24:00;5.85;;;2.65;;
75781;SDS011;64400;44.762;37.698;2022-12-18T00:26:49;7.15;;;3.00;;
75781;SDS011;64400;44.762;37.698;2022-12-18T00:29:37;6.55;;;3.22;;
75781;SDS011;64400;44.762;37.698;2022-12-18T00:32:30;6.90;;;2.88;;
75781;SDS011;64400;44.762;37.698;2022-12-18T00:35:18;4.88;;;2.80;;
75781;SDS011;64400;44.762;37.698;2022-12-18T00:38:09;6.78;;;3.05;;
75781;SDS011;64400;44.762;37.698;2022-12-18T00:40:57;5.22;;;2.38;;
75781;SDS011;64400;44.762;37.698;2022-12-18T00:43:46;6.22;;;3.00;;
75781;SDS011;64400;44.762;37.698;2022-12-18T00:46:34;5.13;;;2.80;;
75781;SDS011;64400;44.762;37.698;2022-12-18T00:49:23;5.63;;;3.00;;
75781;SDS011;64400;44.762;37.698;2022-12-18T00:52:12;6.35;;;3.10;;
75781;SDS011;64400;44.762;37.698;2022-12-18T00:54:44;6.88;;;3.28;;
75781;SDS011;64400;44.762;37.698;2022-12-18T00:57:13;6.07;;;2.92;;
75781;SDS011;64400;44.762;37.698;2022-12-18T01:00:02;6.57;;;3.10;;
75781;SDS011;64400;44.762;37.698;2022-12-18T01:02:52;9.05;;;2.88;;
75781;SDS011;64400;44.762;37.698;2022-12-18T01:05:43;6.00;;;3.25;;
75781;SDS011;64400;44.762;37.698;2022-12-18T01:08:31;7.72;;;3.15;;
75781;SDS011;64400;44.762;37.698;2022-12-18T01:11:20;6.53;;;3.40;;
75781;SDS011;64400;44.762;37.698;2022-12-18T01:14:10;5.53;;;2.80;;
75781;SDS011;64400;44.762;37.698;2022-12-18T01:16:59;5.28;;;2.35;;
75781;SDS011;64400;44.762;37.698;2022-12-18T01:19:52;5.60;;;3.00;;
75781;SDS011;64400;44.762;37.698;2022-12-18T01:22:41;5.72;;;2.97;;
75781;SDS011;64400;44.762;37.698;2022-12-18T01:25:13;4.65;;;2.70;;
75781;SDS011;64400;44.762;37.698;2022-12-18T01:28:01;5.20;;;2.53;;
75781;SDS011;64400;44.762;37.698;2022-12-18T01:30:50;6.95;;;3.00;;
75781;SDS011;64400;44.762;37.698;2022-12-18T01:33:39;6.68;;;2.65;;
75781;SDS011;64400;44.762;37.698;2022-12-18T01:36:29;5.68;;;2.95;;
75781;SDS011;64400;44.762;37.698;2022-12-18T01:39:19;5.10;;;2.97;;
75781;SDS011;64400;44.762;37.698;2022-12-18T01:42:12;6.43;;;3.10;;
75781;SDS011;64400;44.762;37.698;2022-12-18T01:50:36;5.32;;;2.83;;
75781;SDS011;64400;44.762;37.698;2022-12-18T01:53:27;6.18;;;2.83;;
75781;SDS011;64400;44.762;37.698;2022-12-18T01:56:16;7.03;;;3.08;;
75781;SDS011;64400;44.762;37.698;2022-12-18T01:59:07;5.90;;;3.10;;
75781;SDS011;64400;44.762;37.698;2022-12-18T02:04:33;5.95;;;3.08;;
75781;SDS011;64400;44.762;37.698;2022-12-18T02:10:45;5.15;;;2.92;;
75781;SDS011;64400;44.762;37.698;2022-12-18T02:22:44;6.70;;;3.60;;
75781;SDS011;64400;44.762;37.698;2022-12-18T02:29:07;7.68;;;3.80;;
75781;SDS011;64400;44.762;37.698;2022-12-18T02:32:00;8.63;;;3.90;;
75781;SDS011;64400;44.762;37.698;2022-12-18T02:34:51;8.95;;;3.72;;
75781;SDS011;64400;44.762;37.698;2022-12-18T02:37:45;8.63;;;4.03;;
75781;SDS011;64400;44.762;37.698;2022-12-18T02:40:36;8.30;;;4.05;;
75781;SDS011;64400;44.762;37.698;2022-12-18T02:43:26;7.97;;;3.88;;
75781;SDS011;64400;44.762;37.698;2022-12-18T02:46:29;6.25;;;3.22;;
75781;SDS011;64400;44.762;37.698;2022-12-18T02:59:36;9.52;;;4.18;;
75781;SDS011;64400;44.762;37.698;2022-12-18T03:04:28;7.50;;;4.10;;
75781;SDS011;64400;44.762;37.698;2022-12-18T03:07:34;11.18;;;3.95;;
75781;SDS011;64400;44.762;37.698;2022-12-18T03:10:31;7.45;;;3.92;;
75781;SDS011;64400;44.762;37.698;2022-12-18T03:13:26;5.30;;;2.55;;
75781;SDS011;64400;44.762;37.698;2022-12-18T03:16:22;6.88;;;3.50;;
75781;SDS011;64400;44.762;37.698;2022-12-18T03:19:14;7.80;;;3.20;;
75781;SDS011;64400;44.762;37.698;2022-12-18T03:22:05;6.47;;;3.25;;
75781;SDS011;64400;44.762;37.698;2022-12-18T03:24:56;5.93;;;3.03;;
75781;SDS011;64400;44.762;37.698;2022-12-18T03:27:32;6.85;;;3.15;;
75781;SDS011;64400;44.762;37.698;2022-12-18T03:30:23;6.65;;;2.92;;
75781;SDS011;64400;44.762;37.698;2022-12-18T03:36:33;5.85;;;2.67;;
75781;SDS011;64400;44.762;37.698;2022-12-18T03:39:23;8.02;;;3.00;;
75781;SDS011;64400;44.762;37.698;2022-12-18T03:45:09;6.68;;;2.88;;
75781;SDS011;64400;44.762;37.698;2022-12-18T03:48:04;7.00;;;3.00;;
75781;SDS011;64400;44.762;37.698;2022-12-18T03:51:06;5.35;;;2.92;;
75781;SDS011;64400;44.762;37.698;2022-12-18T03:54:00;6.63;;;3.25;;
75781;SDS011;64400;44.762;37.698;2022-12-18T03:57:09;6.03;;;2.72;;
75781;SDS011;64400;44.762;37.698;2022-12-18T04:00:07;7.07;;;2.70;;
75781;SDS011;64400;44.762;37.698;2022-12-18T04:03:06;6.00;;;3.55;;
75781;SDS011;64400;44.762;37.698;2022-12-18T04:05:57;5.68;;;2.88;;
75781;SDS011;64400;44.762;37.698;2022-12-18T04:08:48;5.57;;;3.05;;
75781;SDS011;64400;44.762;37.698;2022-12-18T04:11:20;6.72;;;3.10;;
75781;SDS011;64400;44.762;37.698;2022-12-18T04:14:10;8.00;;;3.40;;
75781;SDS011;64400;44.762;37.698;2022-12-18T04:17:00;6.15;;;3.25;;
75781;SDS011;64400;44.762;37.698;2022-12-18T04:19:42;9.18;;;3.22;;
75781;SDS011;64400;44.762;37.698;2022-12-18T04:22:31;8.82;;;3.78;;
75781;SDS011;64400;44.762;37.698;2022-12-18T04:25:10;6.60;;;3.20;;
75781;SDS011;64400;44.762;37.698;2022-12-18T04:28:10;6.47;;;2.75;;
75781;SDS011;64400;44.762;37.698;2022-12-18T04:30:59;7.57;;;2.83;;
75781;SDS011;64400;44.762;37.698;2022-12-18T04:33:48;5.60;;;2.40;;
75781;SDS011;64400;44.762;37.698;2022-12-18T04:36:42;5.40;;;2.75;;
75781;SDS011;64400;44.762;37.698;2022-12-18T04:39:31;7.03;;;2.50;;
75781;SDS011;64400;44.762;37.698;2022-12-18T04:42:29;6.85;;;2.88;;
75781;SDS011;64400;44.762;37.698;2022-12-18T04:45:18;5.20;;;2.75;;
75781;SDS011;64400;44.762;37.698;2022-12-18T04:48:06;5.13;;;2.63;;
75781;SDS011;64400;44.762;37.698;2022-12-18T04:50:55;4.97;;;2.33;;
75781;SDS011;64400;44.762;37.698;2022-12-18T04:53:44;6.22;;;2.58;;
75781;SDS011;64400;44.762;37.698;2022-12-18T04:56:24;7.20;;;3.00;;
75781;SDS011;64400;44.762;37.698;2022-12-18T04:59:13;7.40;;;2.80;;
75781;SDS011;64400;44.762;37.698;2022-12-18T05:01:45;8.65;;;2.85;;
75781;SDS011;64400;44.762;37.698;2022-12-18T05:04:33;5.55;;;2.67;;
75781;SDS011;64400;44.762;37.698;2022-12-18T05:07:22;5.75;;;2.50;;
75781;SDS011;64400;44.762;37.698;2022-12-18T05:10:07;6.10;;;2.80;;
75781;SDS011;64400;44.762;37.698;2022-12-18T05:12:56;9.70;;;2.95;;
75781;SDS011;64400;44.762;37.698;2022-12-18T05:15:51;6.88;;;2.85;;
75781;SDS011;64400;44.762;37.698;2022-12-18T05:18:27;6.82;;;2.83;;
75781;SDS011;64400;44.762;37.698;2022-12-18T05:21:16;5.00;;;2.85;;
75781;SDS011;64400;44.762;37.698;2022-12-18T05:24:04;5.85;;;2.80;;
75781;SDS011;64400;44.762;37.698;2022-12-18T05:26:53;5.38;;;2.67;;
75781;SDS011;64400;44.762;37.698;2022-12-18T05:29:41;5.20;;;2.90;;
75781;SDS011;64400;44.762;37.698;2022-12-18T05:32:30;5.22;;;2.70;;
75781;SDS011;64400;44.762;37.698;2022-12-18T05:35:19;4.72;;;2.80;;
75781;SDS011;64400;44.762;37.698;2022-12-18T05:38:07;7.13;;;2.83;;
75781;SDS011;64400;44.762;37.698;2022-12-18T05:40:56;8.18;;;2.83;;
75781;SDS011;64400;44.762;37.698;2022-12-18T05:43:45;5.50;;;2.90;;
75781;SDS011;64400;44.762;37.698;2022-12-18T05:46:34;6.38;;;2.78;;
75781;SDS011;64400;44.762;37.698;2022-12-18T05:49:22;7.32;;;3.22;;
75781;SDS011;64400;44.762;37.698;2022-12-18T05:52:11;10.32;;;3.53;;
75781;SDS011;64400;44.762;37.698;2022-12-18T05:54:59;6.78;;;3.83;;
75781;SDS011;64400;44.762;37.698;2022-12-18T05:57:47;8.32;;;3.50;;
75781;SDS011;64400;44.762;37.698;2022-12-18T06:00:37;6.68;;;4.05;;
75781;SDS011;64400;44.762;37.698;2022-12-18T06:03:29;9.43;;;3.92;;
75781;SDS011;64400;44.762;37.698;2022-12-18T06:08:49;7.28;;;3.55;;
75781;SDS011;64400;44.762;37.698;2022-12-18T06:11:38;7.60;;;3.72;;
75781;SDS011;64400;44.762;37.698;2022-12-18T06:14:27;9.35;;;4.30;;
75781;SDS011;64400;44.762;37.698;2022-12-18T06:17:16;8.20;;;4.43;;
75781;SDS011;64400;44.762;37.698;2022-12-18T06:20:04;8.77;;;3.40;;
75781;SDS011;64400;44.762;37.698;2022-12-18T06:22:57;8.90;;;3.22;;
75781;SDS011;64400;44.762;37.698;2022-12-18T06:25:27;6.55;;;2.83;;
75781;SDS011;64400;44.762;37.698;2022-12-18T06:28:16;6.40;;;3.10;;
75781;SDS011;64400;44.762;37.698;2022-12-18T06:30:47;5.28;;;2.97;;
75781;SDS011;64400;44.762;37.698;2022-12-18T06:33:36;5.90;;;3.15;;
75781;SDS011;64400;44.762;37.698;2022-12-18T06:36:16;7.80;;;3.38;;
75781;SDS011;64400;44.762;37.698;2022-12-18T06:39:05;6.95;;;3.60;;
75781;SDS011;64400;44.762;37.698;2022-12-18T06:41:54;11.27;;;3.50;;
75781;SDS011;64400;44.762;37.698;2022-12-18T06:44:42;7.43;;;3.25;;
75781;SDS011;64400;44.762;37.698;2022-12-18T06:47:31;5.68;;;3.10;;
75781;SDS011;64400;44.762;37.698;2022-12-18T06:50:19;5.55;;;3.17;;
75781;SDS011;64400;44.762;37.698;2022-12-18T06:53:08;6.28;;;2.92;;
75781;SDS011;64400;44.762;37.698;2022-12-18T06:55:38;6.50;;;3.20;;
75781;SDS011;64400;44.762;37.698;2022-12-18T06:58:26;8.30;;;3.28;;
75781;SDS011;64400;44.762;37.698;2022-12-18T07:01:16;7.47;;;3.28;;
75781;SDS011;64400;44.762;37.698;2022-12-18T07:04:05;6.88;;;3.17;;
75781;SDS011;64400;44.762;37.698;2022-12-18T07:06:53;6.05;;;3.15;;
75781;SDS011;64400;44.762;37.698;2022-12-18T07:09:33;5.32;;;3.03;;
75781;SDS011;64400;44.762;37.698;2022-12-18T07:12:21;6.85;;;3.05;;
75781;SDS011;64400;44.762;37.698;2022-12-18T07:15:10;7.72;;;3.65;;
75781;SDS011;64400;44.762;37.698;2022-12-18T07:17:39;6.43;;;3.17;;
75781;SDS011;64400;44.762;37.698;2022-12-18T07:20:27;7.53;;;3.20;;
75781;SDS011;64400;44.762;37.698;2022-12-18T07:22:56;6.03;;;3.25;;
75781;SDS011;64400;44.762;37.698;2022-12-18T07:25:46;6.18;;;3.40;;
75781;SDS011;64400;44.762;37.698;2022-12-18T07:28:35;8.02;;;3.25;;
75781;SDS011;64400;44.762;37.698;2022-12-18T07:31:25;7.95;;;3.65;;
75781;SDS011;64400;44.762;37.698;2022-12-18T07:34:14;5.78;;;2.78;;
75781;SDS011;64400;44.762;37.698;2022-12-18T07:37:03;5.60;;;3.22;;
75781;SDS011;64400;44.762;37.698;2022-12-18T07:39:52;7.43;;;3.58;;
75781;SDS011;64400;44.762;37.698;2022-12-18T07:42:40;8.85;;;3.95;;
75781;SDS011;64400;44.762;37.698;2022-12-18T07:45:29;7.50;;;3.47;;
75781;SDS011;64400;44.762;37.698;2022-12-18T07:48:17;6.10;;;3.22;;
75781;SDS011;64400;44.762;37.698;2022-12-18T07:51:06;8.43;;;3.90;;
75781;SDS011;64400;44.762;37.698;2022-12-18T07:53:56;7.78;;;3.60;;
75781;SDS011;64400;44.762;37.698;2022-12-18T07:56:45;6.80;;;3.67;;
75781;SDS011;64400;44.762;37.698;2022-12-18T07:59:33;8.35;;;3.08;;
75781;SDS011;64400;44.762;37.698;2022-12-18T08:02:22;8.65;;;3.20;;
75781;SDS011;64400;44.762;37.698;2022-12-18T08:05:10;6.80;;;2.90;;
75781;SDS011;64400;44.762;37.698;2022-12-18T08:07:50;7.13;;;3.13;;
75781;SDS011;64400;44.762;37.698;2022-12-18T08:10:38;8.88;;;3.42;;
75781;SDS011;64400;44.762;37.698;2022-12-18T08:13:27;7.05;;;3.25;;
75781;SDS011;64400;44.762;37.698;2022-12-18T08:16:17;11.18;;;4.15;;
75781;SDS011;64400;44.762;37.698;2022-12-18T08:19:06;8.23;;;4.28;;
75781;SDS011;64400;44.762;37.698;2022-12-18T08:21:55;13.75;;;5.07;;
75781;SDS011;64400;44.762;37.698;2022-12-18T08:24:26;9.95;;;4.95;;
75781;SDS011;64400;44.762;37.698;2022-12-18T08:27:14;10.93;;;5.75;;
75781;SDS011;64400;44.762;37.698;2022-12-18T08:30:03;10.75;;;4.28;;
75781;SDS011;64400;44.762;37.698;2022-12-18T08:32:52;7.50;;;3.35;;
75781;SDS011;64400;44.762;37.698;2022-12-18T08:35:41;11.60;;;5.18;;
75781;SDS011;64400;44.762;37.698;2022-12-18T08:38:31;8.75;;;4.15;;
75781;SDS011;64400;44.762;37.698;2022-12-18T08:41:21;15.52;;;4.82;;
75781;SDS011;64400;44.762;37.698;2022-12-18T08:44:09;8.93;;;4.05;;
75781;SDS011;64400;44.762;37.698;2022-12-18T08:47:16;10.88;;;5.18;;
75781;SDS011;64400;44.762;37.698;2022-12-18T08:50:05;10.63;;;4.72;;
75781;SDS011;64400;44.762;37.698;2022-12-18T08:52:54;10.75;;;4.75;;
75781;SDS011;64400;44.762;37.698;2022-12-18T08:55:42;9.38;;;4.20;;
75781;SDS011;64400;44.762;37.698;2022-12-18T08:58:31;14.82;;;6.10;;
75781;SDS011;64400;44.762;37.698;2022-12-18T09:01:20;14.50;;;5.85;;
75781;SDS011;64400;44.762;37.698;2022-12-18T09:04:09;13.23;;;4.88;;
75781;SDS011;64400;44.762;37.698;2022-12-18T09:07:04;9.48;;;3.42;;
75781;SDS011;64400;44.762;37.698;2022-12-18T09:09:53;10.60;;;4.40;;
75781;SDS011;64400;44.762;37.698;2022-12-18T09:12:41;10.88;;;4.85;;
75781;SDS011;64400;44.762;37.698;2022-12-18T09:15:30;10.88;;;4.97;;
75781;SDS011;64400;44.762;37.698;2022-12-18T09:17:59;9.40;;;4.25;;
75781;SDS011;64400;44.762;37.698;2022-12-18T09:20:47;11.57;;;5.07;;
75781;SDS011;64400;44.762;37.698;2022-12-18T09:23:38;9.23;;;4.78;;
75781;SDS011;64400;44.762;37.698;2022-12-18T09:26:26;9.45;;;4.25;;
75781;SDS011;64400;44.762;37.698;2022-12-18T09:29:15;10.70;;;4.50;;
75781;SDS011;64400;44.762;37.698;2022-12-18T09:32:04;9.40;;;4.57;;
75781;SDS011;64400;44.762;37.698;2022-12-18T09:34:33;10.13;;;4.03;;
75781;SDS011;64400;44.762;37.698;2022-12-18T09:37:24;8.27;;;4.20;;
75781;SDS011;64400;44.762;37.698;2022-12-18T09:40:16;11.68;;;4.03;;
75781;SDS011;64400;44.762;37.698;2022-12-18T09:43:09;11.07;;;4.70;;
75781;SDS011;64400;44.762;37.698;2022-12-18T09:45:53;9.07;;;5.07;;
75781;SDS011;64400;44.762;37.698;2022-12-18T09:48:47;10.05;;;4.30;;
75781;SDS011;64400;44.762;37.698;2022-12-18T09:51:52;8.82;;;4.00;;
75781;SDS011;64400;44.762;37.698;2022-12-18T09:54:32;8.68;;;3.95;;
75781;SDS011;64400;44.762;37.698;2022-12-18T09:57:15;9.95;;;4.43;;
75781;SDS011;64400;44.762;37.698;2022-12-18T10:03:10;11.00;;;4.70;;
75781;SDS011;64400;44.762;37.698;2022-12-18T10:06:08;10.90;;;4.93;;
75781;SDS011;64400;44.762;37.698;2022-12-18T10:15:24;12.10;;;5.30;;
75781;SDS011;64400;44.762;37.698;2022-12-18T10:21:30;10.50;;;5.70;;
75781;SDS011;64400;44.762;37.698;2022-12-18T10:24:26;9.85;;;5.22;;
75781;SDS011;64400;44.762;37.698;2022-12-18T10:27:22;12.80;;;6.03;;
75781;SDS011;64400;44.762;37.698;2022-12-18T10:30:14;16.20;;;8.00;;
75781;SDS011;64400;44.762;37.698;2022-12-18T10:33:05;18.42;;;7.85;;
75781;SDS011;64400;44.762;37.698;2022-12-18T10:35:58;18.13;;;6.88;;
75781;SDS011;64400;44.762;37.698;2022-12-18T10:38:33;11.57;;;5.40;;
75781;SDS011;64400;44.762;37.698;2022-12-18T10:41:25;13.90;;;5.53;;
75781;SDS011;64400;44.762;37.698;2022-12-18T10:44:21;12.73;;;5.57;;
75781;SDS011;64400;44.762;37.698;2022-12-18T10:47:17;11.02;;;4.78;;
75781;SDS011;64400;44.762;37.698;2022-12-18T10:49:50;11.32;;;5.63;;
75781;SDS011;64400;44.762;37.698;2022-12-18T10:52:42;10.73;;;5.20;;
75781;SDS011;64400;44.762;37.698;2022-12-18T10:55:32;14.73;;;6.00;;
75781;SDS011;64400;44.762;37.698;2022-12-18T11:01:21;18.98;;;7.38;;
75781;SDS011;64400;44.762;37.698;2022-12-18T11:04:13;12.05;;;6.00;;
75781;SDS011;64400;44.762;37.698;2022-12-18T11:10:01;19.50;;;7.28;;
75781;SDS011;64400;44.762;37.698;2022-12-18T11:12:34;23.45;;;10.82;;
75781;SDS011;64400;44.762;37.698;2022-12-18T11:15:26;13.80;;;7.00;;
75781;SDS011;64400;44.762;37.698;2022-12-18T11:21:14;16.33;;;8.30;;
75781;SDS011;64400;44.762;37.698;2022-12-18T11:23:53;12.65;;;7.22;;
75781;SDS011;64400;44.762;37.698;2022-12-18T11:26:42;13.10;;;6.50;;
75781;SDS011;64400;44.762;37.698;2022-12-18T11:29:35;11.80;;;6.72;;
75781;SDS011;64400;44.762;37.698;2022-12-18T11:38:35;11.88;;;6.70;;
75781;SDS011;64400;44.762;37.698;2022-12-18T11:41:34;12.02;;;6.60;;
75781;SDS011;64400;44.762;37.698;2022-12-18T11:44:48;11.75;;;6.60;;
75781;SDS011;64400;44.762;37.698;2022-12-18T11:51:05;12.90;;;6.72;;
75781;SDS011;64400;44.762;37.698;2022-12-18T11:53:55;10.18;;;5.68;;
75781;SDS011;64400;44.762;37.698;2022-12-18T11:56:35;9.80;;;5.70;;
75781;SDS011;64400;44.762;37.698;2022-12-18T12:08:49;10.80;;;5.15;;
75781;SDS011;64400;44.762;37.698;2022-12-18T12:18:25;11.77;;;6.20;;
75781;SDS011;64400;44.762;37.698;2022-12-18T12:21:39;11.45;;;5.55;;
75781;SDS011;64400;44.762;37.698;2022-12-18T12:34:04;12.95;;;6.65;;
75781;SDS011;64400;44.762;37.698;2022-12-18T12:37:11;15.02;;;7.47;;
75781;SDS011;64400;44.762;37.698;2022-12-18T12:39:58;15.60;;;7.53;;
75781;SDS011;64400;44.762;37.698;2022-12-18T12:42:58;18.98;;;9.35;;
75781;SDS011;64400;44.762;37.698;2022-12-18T12:46:11;14.15;;;7.28;;
75781;SDS011;64400;44.762;37.698;2022-12-18T12:49:02;16.38;;;7.72;;
75781;SDS011;64400;44.762;37.698;2022-12-18T12:51:58;21.35;;;9.50;;
75781;SDS011;64400;44.762;37.698;2022-12-18T12:54:53;19.08;;;8.15;;
75781;SDS011;64400;44.762;37.698;2022-12-18T13:04:15;27.48;;;10.77;;
75781;SDS011;64400;44.762;37.698;2022-12-18T13:13:00;31.85;;;12.25;;
75781;SDS011;64400;44.762;37.698;2022-12-18T13:18:58;29.67;;;12.60;;
75781;SDS011;64400;44.762;37.698;2022-12-18T13:21:52;32.67;;;12.82;;
75781;SDS011;64400;44.762;37.698;2022-12-18T13:24:26;44.08;;;13.40;;
75781;SDS011;64400;44.762;37.698;2022-12-18T13:36:27;30.90;;;12.55;;
75781;SDS011;64400;44.762;37.698;2022-12-18T13:44:55;28.33;;;11.77;;
75781;SDS011;64400;44.762;37.698;2022-12-18T13:47:44;30.42;;;11.45;;
75781;SDS011;64400;44.762;37.698;2022-12-18T13:50:32;28.70;;;10.82;;
75781;SDS011;64400;44.762;37.698;2022-12-18T13:53:23;27.83;;;11.02;;
75781;SDS011;64400;44.762;37.698;2022-12-18T13:56:16;24.80;;;10.10;;
75781;SDS011;64400;44.762;37.698;2022-12-18T13:59:16;27.02;;;10.63;;
75781;SDS011;64400;44.762;37.698;2022-12-18T14:02:14;22.88;;;9.43;;
75781;SDS011;64400;44.762;37.698;2022-12-18T14:05:05;23.95;;;9.80;;
75781;SDS011;64400;44.762;37.698;2022-12-18T14:08:10;26.88;;;9.95;;
75781;SDS011;64400;44.762;37.698;2022-12-18T14:11:01;21.95;;;8.95;;
75781;SDS011;64400;44.762;37.698;2022-12-18T14:13:53;26.60;;;11.73;;
75781;SDS011;64400;44.762;37.698;2022-12-18T14:16:42;19.67;;;9.40;;
75781;SDS011;64400;44.762;37.698;2022-12-18T14:19:33;18.73;;;9.30;;
75781;SDS011;64400;44.762;37.698;2022-12-18T14:22:24;20.63;;;8.40;;
75781;SDS011;64400;44.762;37.698;2022-12-18T14:25:20;17.73;;;8.98;;
75781;SDS011;64400;44.762;37.698;2022-12-18T14:28:13;17.35;;;8.52;;
75781;SDS011;64400;44.762;37.698;2022-12-18T14:31:03;16.15;;;8.13;;
75781;SDS011;64400;44.762;37.698;2022-12-18T14:33:51;21.40;;;7.78;;
75781;SDS011;64400;44.762;37.698;2022-12-18T14:36:41;16.20;;;7.50;;
75781;SDS011;64400;44.762;37.698;2022-12-18T14:39:39;16.58;;;7.30;;
75781;SDS011;64400;44.762;37.698;2022-12-18T14:42:31;15.68;;;8.10;;
75781;SDS011;64400;44.762;37.698;2022-12-18T14:45:37;15.57;;;8.18;;
75781;SDS011;64400;44.762;37.698;2022-12-18T14:48:38;15.05;;;7.80;;
75781;SDS011;64400;44.762;37.698;2022-12-18T14:51:31;17.30;;;8.88;;
75781;SDS011;64400;44.762;37.698;2022-12-18T14:54:24;16.08;;;8.93;;
75781;SDS011;64400;44.762;37.698;2022-12-18T15:00:15;17.98;;;9.18;;
75781;SDS011;64400;44.762;37.698;2022-12-18T15:03:08;18.27;;;9.33;;
75781;SDS011;64400;44.762;37.698;2022-12-18T15:05:37;19.00;;;9.82;;
75781;SDS011;64400;44.762;37.698;2022-12-18T15:08:36;19.23;;;10.45;;
75781;SDS011;64400;44.762;37.698;2022-12-18T15:11:23;18.30;;;9.48;;
75781;SDS011;64400;44.762;37.698;2022-12-18T15:14:22;17.88;;;9.57;;
75781;SDS011;64400;44.762;37.698;2022-12-18T15:17:20;25.05;;;12.25;;
75781;SDS011;64400;44.762;37.698;2022-12-18T15:20:10;24.77;;;12.40;;
75781;SDS011;64400;44.762;37.698;2022-12-18T15:22:59;29.20;;;13.98;;
75781;SDS011;64400;44.762;37.698;2022-12-18T15:25:49;28.67;;;13.27;;
75781;SDS011;64400;44.762;37.698;2022-12-18T15:28:56;33.30;;;15.02;;
75781;SDS011;64400;44.762;37.698;2022-12-18T15:31:58;23.33;;;11.82;;
75781;SDS011;64400;44.762;37.698;2022-12-18T15:34:48;19.92;;;11.52;;
75781;SDS011;64400;44.762;37.698;2022-12-18T15:37:19;26.23;;;13.55;;
75781;SDS011;64400;44.762;37.698;2022-12-18T15:40:16;23.50;;;12.45;;
75781;SDS011;64400;44.762;37.698;2022-12-18T15:42:58;21.60;;;11.52;;
75781;SDS011;64400;44.762;37.698;2022-12-18T15:46:06;19.80;;;11.45;;
75781;SDS011;64400;44.762;37.698;2022-12-18T15:48:58;20.98;;;11.20;;
75781;SDS011;64400;44.762;37.698;2022-12-18T15:51:51;22.83;;;11.45;;
75781;SDS011;64400;44.762;37.698;2022-12-18T15:54:41;17.88;;;10.77;;
75781;SDS011;64400;44.762;37.698;2022-12-18T15:57:48;17.27;;;10.07;;
75781;SDS011;64400;44.762;37.698;2022-12-18T16:00:37;17.63;;;10.25;;
75781;SDS011;64400;44.762;37.698;2022-12-18T16:03:29;17.25;;;10.68;;
75781;SDS011;64400;44.762;37.698;2022-12-18T16:06:17;16.38;;;8.98;;
75781;SDS011;64400;44.762;37.698;2022-12-18T16:09:06;15.07;;;9.23;;
75781;SDS011;64400;44.762;37.698;2022-12-18T16:11:56;14.02;;;8.25;;
75781;SDS011;64400;44.762;37.698;2022-12-18T16:14:31;14.95;;;8.77;;
75781;SDS011;64400;44.762;37.698;2022-12-18T16:17:19;16.52;;;9.70;;
75781;SDS011;64400;44.762;37.698;2022-12-18T16:20:14;16.52;;;9.60;;
75781;SDS011;64400;44.762;37.698;2022-12-18T16:23:04;18.58;;;10.38;;
75781;SDS011;64400;44.762;37.698;2022-12-18T16:25:51;21.02;;;11.15;;
75781;SDS011;64400;44.762;37.698;2022-12-18T16:28:39;18.83;;;10.73;;
75781;SDS011;64400;44.762;37.698;2022-12-18T16:31:29;20.10;;;9.95;;
75781;SDS011;64400;44.762;37.698;2022-12-18T16:34:28;20.25;;;9.80;;
75781;SDS011;64400;44.762;37.698;2022-12-18T16:37:05;15.73;;;9.13;;
75781;SDS011;64400;44.762;37.698;2022-12-18T16:39:36;16.27;;;9.70;;
75781;SDS011;64400;44.762;37.698;2022-12-18T16:42:26;17.63;;;9.43;;
75781;SDS011;64400;44.762;37.698;2022-12-18T16:45:15;16.80;;;9.90;;
75781;SDS011;64400;44.762;37.698;2022-12-18T16:48:06;18.20;;;10.93;;
75781;SDS011;64400;44.762;37.698;2022-12-18T16:50:59;37.42;;;19.60;;
75781;SDS011;64400;44.762;37.698;2022-12-18T16:53:52;22.33;;;13.30;;
75781;SDS011;64400;44.762;37.698;2022-12-18T16:56:43;22.75;;;12.55;;
75781;SDS011;64400;44.762;37.698;2022-12-18T16:59:15;18.00;;;9.80;;
75781;SDS011;64400;44.762;37.698;2022-12-18T17:02:03;12.85;;;8.30;;
75781;SDS011;64400;44.762;37.698;2022-12-18T17:04:53;14.63;;;9.18;;
75781;SDS011;64400;44.762;37.698;2022-12-18T17:07:45;15.52;;;10.20;;
75781;SDS011;64400;44.762;37.698;2022-12-18T17:10:34;16.52;;;9.90;;
75781;SDS011;64400;44.762;37.698;2022-12-18T17:13:26;15.80;;;9.77;;
75781;SDS011;64400;44.762;37.698;2022-12-18T17:16:14;16.08;;;10.05;;
75781;SDS011;64400;44.762;37.698;2022-12-18T17:18:46;14.90;;;9.57;;
75781;SDS011;64400;44.762;37.698;2022-12-18T17:21:35;16.08;;;9.43;;
75781;SDS011;64400;44.762;37.698;2022-12-18T17:24:24;16.05;;;9.30;;
75781;SDS011;64400;44.762;37.698;2022-12-18T17:27:14;15.57;;;9.02;;
75781;SDS011;64400;44.762;37.698;2022-12-18T17:30:03;12.98;;;8.70;;
75781;SDS011;64400;44.762;37.698;2022-12-18T17:32:52;15.05;;;8.80;;
75781;SDS011;64400;44.762;37.698;2022-12-18T17:35:41;12.98;;;8.40;;
75781;SDS011;64400;44.762;37.698;2022-12-18T17:38:25;18.77;;;8.73;;
75781;SDS011;64400;44.762;37.698;2022-12-18T17:41:14;15.15;;;8.57;;
75781;SDS011;64400;44.762;37.698;2022-12-18T17:44:03;14.27;;;7.88;;
75781;SDS011;64400;44.762;37.698;2022-12-18T17:46:52;10.77;;;6.97;;
75781;SDS011;64400;44.762;37.698;2022-12-18T17:49:41;9.43;;;5.55;;
75781;SDS011;64400;44.762;37.698;2022-12-18T17:52:30;10.23;;;5.93;;
75781;SDS011;64400;44.762;37.698;2022-12-18T17:55:19;8.73;;;5.82;;
75781;SDS011;64400;44.762;37.698;2022-12-18T17:58:07;8.88;;;5.65;;
75781;SDS011;64400;44.762;37.698;2022-12-18T18:00:38;10.57;;;6.20;;
75781;SDS011;64400;44.762;37.698;2022-12-18T18:03:07;11.07;;;5.93;;
75781;SDS011;64400;44.762;37.698;2022-12-18T18:05:56;8.75;;;5.63;;
75781;SDS011;64400;44.762;37.698;2022-12-18T18:08:27;9.95;;;5.32;;
75781;SDS011;64400;44.762;37.698;2022-12-18T18:11:18;9.52;;;5.43;;
75781;SDS011;64400;44.762;37.698;2022-12-18T18:14:36;8.52;;;5.25;;
75781;SDS011;64400;44.762;37.698;2022-12-18T18:17:25;9.23;;;5.20;;
75781;SDS011;64400;44.762;37.698;2022-12-18T18:20:20;7.78;;;5.00;;
75781;SDS011;64400;44.762;37.698;2022-12-18T18:23:09;9.65;;;5.90;;
75781;SDS011;64400;44.762;37.698;2022-12-18T18:26:04;10.05;;;6.35;;
75781;SDS011;64400;44.762;37.698;2022-12-18T18:28:55;14.43;;;6.65;;
75781;SDS011;64400;44.762;37.698;2022-12-18T18:31:44;12.00;;;5.50;;
75781;SDS011;64400;44.762;37.698;2022-12-18T18:34:33;9.43;;;5.30;;
75781;SDS011;64400;44.762;37.698;2022-12-18T18:37:24;12.55;;;7.00;;
75781;SDS011;64400;44.762;37.698;2022-12-18T18:40:12;9.10;;;5.60;;
75781;SDS011;64400;44.762;37.698;2022-12-18T18:43:06;10.23;;;5.47;;
75781;SDS011;64400;44.762;37.698;2022-12-18T18:45:57;8.90;;;5.90;;
75781;SDS011;64400;44.762;37.698;2022-12-18T18:48:49;8.52;;;5.28;;
75781;SDS011;64400;44.762;37.698;2022-12-18T18:51:21;12.85;;;5.80;;